Time;durP1;ratioP1;P1;durP2;ratioP2;P2;SDS_P1;SDS_P2;PMS_P1;PMS_P2;Temp;Humidity;BMP_temperature;BMP_pressure;BME280_temperature;BME280_humidity;BME280_pressure;Samples;Min_cycle;Max_cycle;Signal;HPM_P1;HPM_P2
2021/04/11 00:29:31;;;;;;;30.05;25.70;;;;;;;;;;5097903;28;20203;-63
2021/04/11 00:31:58;;;;;;;32.50;26.33;;;;;;;;;;5097907;28;20222;-62
2021/04/11 00:34:25;;;;;;;30.35;26.08;;;;;;;;;;5098205;28;20208;-62
2021/04/11 00:36:52;;;;;;;34.97;26.95;;;;;;;;;;5098173;28;20385;-62
2021/04/11 00:39:19;;;;;;;30.38;26.90;;;;;;;;;;5098339;28;20253;-62
2021/04/11 00:41:47;;;;;;;28.83;25.73;;;;;;;;;;5098429;28;20211;-62
2021/04/11 00:44:14;;;;;;;29.05;25.70;;;;;;;;;;5097957;28;20203;-62
2021/04/11 00:46:44;;;;;;;30.10;25.20;;;;;;;;;;5098136;28;20253;-62
2021/04/11 00:49:11;;;;;;;30.23;26.95;;;;;;;;;;5097564;28;20243;-63
2021/04/11 00:51:38;;;;;;;30.35;26.13;;;;;;;;;;5097290;28;20207;-64
2021/04/11 00:54:06;;;;;;;29.75;26.35;;;;;;;;;;5097549;28;20253;-63
2021/04/11 00:56:34;;;;;;;31.52;25.77;;;;;;;;;;5098338;28;20204;-62
2021/04/11 00:59:01;;;;;;;29.65;25.35;;;;;;;;;;5097239;28;20196;-63
2021/04/11 01:01:28;;;;;;;31.92;26.67;;;;;;;;;;5097035;28;20253;-63
2021/04/11 01:03:56;;;;;;;29.23;25.73;;;;;;;;;;5097179;28;20554;-62
2021/04/11 01:06:25;;;;;;;29.33;24.38;;;;;;;;;;5096897;28;20281;-63
2021/04/11 01:08:52;;;;;;;33.15;28.27;;;;;;;;;;5096798;28;20282;-62
2021/04/11 01:11:20;;;;;;;29.20;25.30;;;;;;;;;;5097002;28;20333;-63
2021/04/11 01:13:48;;;;;;;30.83;25.55;;;;;;;;;;5096628;28;20257;-62
2021/04/11 01:16:15;;;;;;;29.92;26.73;;;;;;;;;;5096699;28;20224;-62
2021/04/11 01:18:43;;;;;;;31.42;25.38;;;;;;;;;;5096841;28;20200;-63
2021/04/11 01:21:14;;;;;;;29.27;25.70;;;;;;;;;;5099009;28;20207;-63
2021/04/11 01:23:53;;;;;;;29.80;24.70;;;;;;;;;;5100796;28;20191;-62
2021/04/11 01:26:21;;;;;;;29.75;24.98;;;;;;;;;;5099616;28;20239;-62
2021/04/11 01:28:48;;;;;;;29.90;25.35;;;;;;;;;;5097767;28;20238;-63
2021/04/11 01:31:15;;;;;;;30.23;25.52;;;;;;;;;;5098251;28;20257;-63
2021/04/11 01:33:44;;;;;;;29.63;25.67;;;;;;;;;;5106415;28;20207;-63
2021/04/11 01:36:12;;;;;;;30.08;25.30;;;;;;;;;;5102232;28;20246;-62
2021/04/11 01:38:39;;;;;;;32.13;25.30;;;;;;;;;;5096521;28;20196;-62
2021/04/11 01:41:09;;;;;;;30.85;26.77;;;;;;;;;;5096672;28;20200;-62
2021/04/11 01:43:37;;;;;;;29.25;25.23;;;;;;;;;;5096621;28;20215;-61
2021/04/11 01:46:05;;;;;;;30.38;23.67;;;;;;;;;;5096477;28;20565;-63
2021/04/11 01:48:32;;;;;;;34.42;26.58;;;;;;;;;;5096369;28;20220;-63
2021/04/11 01:50:59;;;;;;;30.90;26.92;;;;;;;;;;5096053;28;20204;-63
2021/04/11 01:53:26;;;;;;;26.35;23.15;;;;;;;;;;5096324;28;20577;-63
2021/04/11 01:55:53;;;;;;;31.20;25.75;;;;;;;;;;5096260;28;20223;-62
2021/04/11 01:58:20;;;;;;;28.08;24.95;;;;;;;;;;5096385;28;20237;-63
2021/04/11 02:00:49;;;;;;;30.15;26.33;;;;;;;;;;5096156;28;20266;-62
2021/04/11 02:03:16;;;;;;;31.17;25.45;;;;;;;;;;5095929;28;20204;-63
2021/04/11 02:05:44;;;;;;;28.80;25.63;;;;;;;;;;5095958;28;20278;-62
2021/04/11 02:08:11;;;;;;;34.85;28.83;;;;;;;;;;5095724;28;20675;-63
2021/04/11 02:10:41;;;;;;;29.05;25.23;;;;;;;;;;5095845;28;20199;-62
2021/04/11 02:13:08;;;;;;;32.03;26.13;;;;;;;;;;5095924;28;20212;-63
2021/04/11 02:15:37;;;;;;;32.97;25.77;;;;;;;;;;5095253;28;20220;-63
2021/04/11 02:18:05;;;;;;;28.98;25.55;;;;;;;;;;5095812;28;20196;-63
2021/04/11 02:20:32;;;;;;;30.60;25.65;;;;;;;;;;5095559;28;20207;-63
2021/04/11 02:22:59;;;;;;;33.50;27.08;;;;;;;;;;5095457;28;20233;-62
2021/04/11 02:25:28;;;;;;;31.98;26.00;;;;;;;;;;5095693;28;20220;-63
2021/04/11 02:27:55;;;;;;;29.77;25.50;;;;;;;;;;5095598;28;20226;-62
2021/04/11 02:30:23;;;;;;;31.35;26.80;;;;;;;;;;5095065;28;20208;-63
2021/04/11 02:32:49;;;;;;;26.90;23.98;;;;;;;;;;5095401;28;20207;-62
2021/04/11 02:35:19;;;;;;;30.58;23.65;;;;;;;;;;5094980;28;20227;-62
2021/04/11 02:37:47;;;;;;;31.23;26.02;;;;;;;;;;5095301;28;20211;-62
2021/04/11 02:40:19;;;;;;;27.02;23.20;;;;;;;;;;5095165;28;20196;-62
2021/04/11 02:42:45;;;;;;;28.77;24.90;;;;;;;;;;5095614;28;20192;-62
2021/04/11 02:45:14;;;;;;;27.35;23.85;;;;;;;;;;5094867;28;20241;-63
2021/04/11 02:47:41;;;;;;;30.05;25.00;;;;;;;;;;5094123;28;20204;-63
2021/04/11 02:50:09;;;;;;;26.90;24.00;;;;;;;;;;5095375;28;20204;-63
2021/04/11 02:52:39;;;;;;;32.28;26.30;;;;;;;;;;5095331;28;20549;-62
2021/04/11 02:55:06;;;;;;;28.48;24.77;;;;;;;;;;5094918;28;20227;-63
2021/04/11 02:57:33;;;;;;;27.48;22.42;;;;;;;;;;5094794;28;20200;-62
2021/04/11 02:59:59;;;;;;;30.45;24.30;;;;;;;;;;5094668;28;20196;-61
2021/04/11 03:02:26;;;;;;;26.17;22.30;;;;;;;;;;5094987;28;20200;-62
2021/04/11 03:04:53;;;;;;;29.40;24.27;;;;;;;;;;5094830;28;20223;-63
2021/04/11 03:07:22;;;;;;;27.95;23.70;;;;;;;;;;5094533;28;20208;-62
2021/04/11 03:09:51;;;;;;;28.30;23.67;;;;;;;;;;5094654;28;20370;-62
2021/04/11 03:12:18;;;;;;;29.58;24.00;;;;;;;;;;5094662;28;20278;-62
2021/04/11 03:14:46;;;;;;;29.98;24.35;;;;;;;;;;5094543;28;20242;-62
2021/04/11 03:17:14;;;;;;;29.98;25.02;;;;;;;;;;5094501;28;20203;-62
2021/04/11 03:19:48;;;;;;;30.98;25.50;;;;;;;;;;5094509;28;20222;-62
2021/04/11 03:22:16;;;;;;;31.90;24.85;;;;;;;;;;5094407;28;20188;-63
2021/04/11 03:24:43;;;;;;;29.65;24.23;;;;;;;;;;5094384;28;20652;-62
2021/04/11 03:27:14;;;;;;;33.75;25.67;;;;;;;;;;5094333;28;20255;-62
2021/04/11 03:29:44;;;;;;;32.85;25.33;;;;;;;;;;5094381;28;20261;-62
2021/04/11 03:32:12;;;;;;;28.90;25.48;;;;;;;;;;5101862;28;20204;-63
2021/04/11 03:34:40;;;;;;;32.25;24.98;;;;;;;;;;5106298;28;20245;-62
2021/04/11 03:37:07;;;;;;;31.13;25.48;;;;;;;;;;5096290;28;20204;-63
2021/04/11 03:39:34;;;;;;;30.30;25.50;;;;;;;;;;5096347;28;20196;-63
2021/04/11 03:42:04;;;;;;;29.63;23.35;;;;;;;;;;5095246;28;20200;-62
2021/04/11 03:44:32;;;;;;;30.88;24.80;;;;;;;;;;5094222;28;20242;-62
2021/04/11 03:47:02;;;;;;;31.35;23.58;;;;;;;;;;5094336;28;20200;-63
2021/04/11 03:49:31;;;;;;;31.95;23.48;;;;;;;;;;5094038;28;20230;-62
2021/04/11 03:51:59;;;;;;;34.95;26.30;;;;;;;;;;5093993;28;20238;-62
2021/04/11 03:54:29;;;;;;;33.47;23.40;;;;;;;;;;5093898;28;20549;-63
2021/04/11 03:57:07;;;;;;;28.95;22.75;;;;;;;;;;5093832;28;20200;-63
2021/04/11 03:59:36;;;;;;;32.40;24.90;;;;;;;;;;5093634;28;20184;-62
2021/04/11 04:02:06;;;;;;;31.42;23.63;;;;;;;;;;5094328;28;20617;-62
2021/04/11 04:07:58;;;;;;;30.65;24.75;;;;;;;;;;5112065;27;20548;-62
2021/04/11 04:10:27;;;;;;;29.90;23.08;;;;;;;;;;5111437;28;20304;-62
2021/04/11 04:13:05;;;;;;;32.45;25.65;;;;;;;;;;5111193;28;20203;-62
2021/04/11 04:15:36;;;;;;;35.55;22.98;;;;;;;;;;5111301;28;20563;-61
2021/04/11 04:18:09;;;;;;;30.67;24.58;;;;;;;;;;5111273;28;20549;-62
2021/04/11 04:20:41;;;;;;;27.98;24.95;;;;;;;;;;5111427;28;20188;-61
2021/04/11 04:23:12;;;;;;;31.15;24.45;;;;;;;;;;5116064;28;20183;-62
2021/04/11 04:25:52;;;;;;;30.83;23.65;;;;;;;;;;5117064;28;20223;-62
2021/04/11 04:28:22;;;;;;;31.48;24.20;;;;;;;;;;5118173;28;20184;-60
2021/04/11 04:30:55;;;;;;;28.27;22.48;;;;;;;;;;5115510;28;20225;-62
2021/04/11 04:33:34;;;;;;;27.75;22.35;;;;;;;;;;5112319;28;20184;-62
2021/04/11 04:36:09;;;;;;;29.80;24.10;;;;;;;;;;5110842;28;20656;-63
2021/04/11 04:38:45;;;;;;;28.17;22.48;;;;;;;;;;5111480;28;20210;-61
2021/04/11 04:41:16;;;;;;;29.48;24.17;;;;;;;;;;5110891;28;20195;-63
2021/04/11 04:43:48;;;;;;;31.30;23.73;;;;;;;;;;5110934;28;20210;-62
2021/04/11 04:46:16;;;;;;;27.48;22.45;;;;;;;;;;5110678;28;20629;-62
2021/04/11 04:48:47;;;;;;;31.10;23.73;;;;;;;;;;5110615;28;20706;-61
2021/04/11 04:51:14;;;;;;;29.15;23.23;;;;;;;;;;5110865;28;20540;-61
2021/04/11 04:53:44;;;;;;;27.17;21.58;;;;;;;;;;5110674;28;20249;-62
2021/04/11 04:56:13;;;;;;;27.92;22.50;;;;;;;;;;5110592;28;20212;-62
2021/04/11 04:58:41;;;;;;;28.58;23.30;;;;;;;;;;5110721;28;20215;-62
2021/04/11 05:01:12;;;;;;;27.45;22.42;;;;;;;;;;5110182;28;20204;-63
2021/04/11 05:03:42;;;;;;;30.15;23.98;;;;;;;;;;5110441;28;20651;-61
2021/04/11 05:06:11;;;;;;;28.25;22.98;;;;;;;;;;5110407;28;20227;-62
2021/04/11 05:08:47;;;;;;;29.75;24.02;;;;;;;;;;5111124;28;20199;-62
2021/04/11 05:11:18;;;;;;;27.45;22.65;;;;;;;;;;5112026;28;20660;-63
2021/04/11 05:13:46;;;;;;;27.90;22.75;;;;;;;;;;5112233;28;20632;-63
2021/04/11 05:16:17;;;;;;;29.27;21.65;;;;;;;;;;5112255;28;20216;-63
2021/04/11 05:18:45;;;;;;;28.52;23.42;;;;;;;;;;5101100;28;20185;-62
2021/04/11 05:21:14;;;;;;;28.83;22.85;;;;;;;;;;5097119;28;20200;-63
2021/04/11 05:23:43;;;;;;;27.48;23.90;;;;;;;;;;5096552;28;20253;-62
2021/04/11 05:26:13;;;;;;;29.92;22.80;;;;;;;;;;5096191;28;20224;-63
2021/04/11 05:28:43;;;;;;;27.73;23.35;;;;;;;;;;5096337;28;20644;-63
2021/04/11 05:31:11;;;;;;;27.13;22.23;;;;;;;;;;5096844;28;20672;-62
2021/04/11 05:33:38;;;;;;;25.85;23.10;;;;;;;;;;5097115;28;20204;-63
2021/04/11 05:36:08;;;;;;;28.55;22.23;;;;;;;;;;5102518;28;20219;-63
2021/04/11 05:38:41;;;;;;;24.30;21.65;;;;;;;;;;5099436;28;20254;-63
2021/04/11 05:41:08;;;;;;;24.42;21.63;;;;;;;;;;5097549;28;20207;-62
2021/04/11 05:43:37;;;;;;;30.80;22.38;;;;;;;;;;5097705;28;20204;-62
2021/04/11 05:46:11;;;;;;;24.08;20.83;;;;;;;;;;5096625;28;20277;-61
2021/04/11 05:48:41;;;;;;;25.70;21.35;;;;;;;;;;5097100;28;20235;-62
2021/04/11 05:51:11;;;;;;;26.20;21.27;;;;;;;;;;5098763;28;20200;-61
2021/04/11 05:53:41;;;;;;;25.42;21.52;;;;;;;;;;5098110;28;20499;-61
2021/04/11 05:56:10;;;;;;;24.63;19.80;;;;;;;;;;5096837;28;20678;-61
2021/04/11 05:58:39;;;;;;;25.98;21.58;;;;;;;;;;5096130;28;20253;-61
2021/04/11 06:01:08;;;;;;;23.05;20.45;;;;;;;;;;5095801;28;20695;-61
2021/04/11 06:03:36;;;;;;;22.25;19.13;;;;;;;;;;5095640;28;20197;-61
2021/04/11 06:06:08;;;;;;;22.88;20.45;;;;;;;;;;5095472;28;20277;-62
2021/04/11 06:08:39;;;;;;;23.33;19.92;;;;;;;;;;5096613;28;20196;-61
2021/04/11 06:11:07;;;;;;;22.57;19.40;;;;;;;;;;5100023;28;20205;-61
2021/04/11 06:13:39;;;;;;;21.40;19.27;;;;;;;;;;5097970;28;20442;-60
2021/04/11 06:16:09;;;;;;;21.40;19.10;;;;;;;;;;5098596;28;20454;-61
2021/04/11 06:18:36;;;;;;;22.63;20.20;;;;;;;;;;5096160;28;20476;-61
2021/04/11 06:21:07;;;;;;;24.23;20.80;;;;;;;;;;5096315;28;20445;-60
2021/04/11 06:23:39;;;;;;;19.92;17.83;;;;;;;;;;5095859;28;20435;-62
2021/04/11 06:26:08;;;;;;;22.70;18.08;;;;;;;;;;5095513;28;20273;-61
2021/04/11 06:28:42;;;;;;;20.42;17.88;;;;;;;;;;5095355;28;20253;-61
2021/04/11 06:31:12;;;;;;;21.20;19.00;;;;;;;;;;5094718;28;20265;-62
2021/04/11 06:33:41;;;;;;;21.77;18.90;;;;;;;;;;5095747;28;20434;-62
2021/04/11 06:36:10;;;;;;;21.85;18.02;;;;;;;;;;5095549;28;20870;-61
2021/04/11 06:38:38;;;;;;;20.07;17.33;;;;;;;;;;5094896;28;20616;-61
2021/04/11 06:41:22;;;;;;;18.50;16.60;;;;;;;;;;5095182;28;20438;-62
2021/04/11 06:44:07;;;;;;;20.00;18.00;;;;;;;;;;5095578;28;20525;-61
2021/04/11 06:46:39;;;;;;;19.37;17.37;;;;;;;;;;5094827;28;20203;-61
2021/04/11 06:49:15;;;;;;;20.77;18.17;;;;;;;;;;5094553;28;20438;-61
2021/04/11 06:51:49;;;;;;;21.03;17.90;;;;;;;;;;5094505;28;20432;-61
2021/04/11 06:54:33;;;;;;;19.23;17.03;;;;;;;;;;5094184;28;20419;-62
2021/04/11 06:57:08;;;;;;;18.93;17.00;;;;;;;;;;5094947;28;20433;-61
2021/04/11 06:59:39;;;;;;;24.75;18.83;;;;;;;;;;5094470;28;20902;-61
2021/04/11 07:02:29;;;;;;;19.75;17.67;;;;;;;;;;5094595;28;20212;-60
2021/04/11 07:05:00;;;;;;;18.75;16.58;;;;;;;;;;5095908;28;20306;-61
2021/04/11 07:07:45;;;;;;;19.93;16.87;;;;;;;;;;5094867;28;20220;-61
2021/04/11 07:10:21;;;;;;;22.53;17.73;;;;;;;;;;5094767;28;20449;-62
2021/04/11 07:13:09;;;;;;;21.20;18.02;;;;;;;;;;5095336;28;20877;-63
2021/04/11 07:15:49;;;;;;;22.93;17.90;;;;;;;;;;5095257;28;20220;-61
2021/04/11 07:18:30;;;;;;;18.83;16.77;;;;;;;;;;5094777;28;20437;-60
2021/04/11 07:21:17;;;;;;;17.20;15.37;;;;;;;;;;5096610;28;20532;-61
2021/04/11 07:23:58;;;;;;;18.70;16.80;;;;;;;;;;5105819;28;20422;-62
2021/04/11 07:26:36;;;;;;;21.93;16.70;;;;;;;;;;5108649;28;20503;-61
2021/04/11 07:29:17;;;;;;;17.90;16.10;;;;;;;;;;5104198;28;20445;-61
2021/04/11 07:31:58;;;;;;;17.90;16.00;;;;;;;;;;5117694;28;20437;-62
2021/04/11 07:34:31;;;;;;;18.57;16.60;;;;;;;;;;5115426;28;20433;-61
2021/04/11 07:37:05;;;;;;;17.57;15.60;;;;;;;;;;5108489;28;20914;-61
2021/04/11 07:39:38;;;;;;;18.60;16.77;;;;;;;;;;5101477;28;20798;-61
2021/04/11 07:42:11;;;;;;;18.30;16.40;;;;;;;;;;5104827;28;20483;-61
2021/04/11 07:44:51;;;;;;;19.80;16.33;;;;;;;;;;5107825;28;20454;-61
2021/04/11 07:47:27;;;;;;;18.77;16.63;;;;;;;;;;5107561;28;20477;-61
2021/04/11 07:50:15;;;;;;;20.30;16.90;;;;;;;;;;5110194;28;20421;-60
2021/04/11 07:52:55;;;;;;;19.33;16.33;;;;;;;;;;5104803;28;20465;-61
2021/04/11 07:55:25;;;;;;;21.00;16.90;;;;;;;;;;5109774;28;20454;-61
2021/04/11 07:58:06;;;;;;;16.83;14.87;;;;;;;;;;5108975;28;20822;-61
2021/04/11 08:00:49;;;;;;;17.43;15.57;;;;;;;;;;5108553;28;20445;-61
2021/04/11 08:03:39;;;;;;;19.53;16.70;;;;;;;;;;5112489;28;20811;-61
2021/04/11 08:06:21;;;;;;;18.80;16.80;;;;;;;;;;5107442;28;20485;-61
2021/04/11 08:09:06;;;;;;;18.83;16.80;;;;;;;;;;5107335;28;20434;-60
2021/04/11 08:11:46;;;;;;;21.33;18.40;;;;;;;;;;5105709;28;20427;-61
2021/04/11 08:14:18;;;;;;;18.37;16.10;;;;;;;;;;5097120;28;20434;-62
2021/04/11 08:16:49;;;;;;;18.37;16.50;;;;;;;;;;5096625;28;20422;-62
2021/04/11 08:19:25;;;;;;;18.40;16.20;;;;;;;;;;5095791;28;20453;-62
2021/04/11 08:21:55;;;;;;;18.70;16.70;;;;;;;;;;5095815;28;20441;-61
2021/04/11 08:24:32;;;;;;;20.20;17.80;;;;;;;;;;5095282;28;20548;-61
2021/04/11 08:27:17;;;;;;;15.57;13.40;;;;;;;;;;5095255;28;20981;-62
2021/04/11 08:29:52;;;;;;;17.33;15.57;;;;;;;;;;5095407;28;20442;-63
2021/04/11 08:32:36;;;;;;;17.00;15.20;;;;;;;;;;5095327;28;20422;-61
2021/04/11 08:35:10;;;;;;;12.30;10.80;;;;;;;;;;5094376;28;20473;-62
2021/04/11 08:37:59;;;;;;;14.50;11.83;;;;;;;;;;5095198;28;20446;-61
2021/04/11 08:40:35;;;;;;;11.30;10.20;;;;;;;;;;5094696;28;20426;-62
2021/04/11 08:43:15;;;;;;;8.77;7.87;;;;;;;;;;5094364;28;20483;-62
2021/04/11 08:45:56;;;;;;;9.53;8.63;;;;;;;;;;5094011;28;20470;-60
2021/04/11 08:48:25;;;;;;;9.50;8.60;;;;;;;;;;5094151;28;20422;-62
2021/04/11 08:50:56;;;;;;;7.83;7.07;;;;;;;;;;5095827;28;20449;-62
2021/04/11 08:53:28;;;;;;;6.03;5.43;;;;;;;;;;5100314;28;20418;-62
2021/04/11 08:55:59;;;;;;;7.63;5.97;;;;;;;;;;5106244;28;20457;-63
2021/04/11 08:58:32;;;;;;;6.43;5.77;;;;;;;;;;5105423;28;20449;-61
2021/04/11 09:01:04;;;;;;;5.93;5.33;;;;;;;;;;5102511;28;20426;-60
2021/04/11 09:03:49;;;;;;;6.13;5.53;;;;;;;;;;5101682;28;20415;-62
2021/04/11 09:06:23;;;;;;;6.23;5.63;;;;;;;;;;5091146;28;20493;-61
2021/04/11 09:08:59;;;;;;;6.37;5.77;;;;;;;;;;5100514;28;20442;-61
2021/04/11 09:11:30;;;;;;;6.10;5.50;;;;;;;;;;5099278;28;20429;-62
2021/04/11 09:14:05;;;;;;;6.47;5.87;;;;;;;;;;5099083;28;20434;-61
2021/04/11 09:16:36;;;;;;;6.50;5.90;;;;;;;;;;5098237;28;20519;-62
2021/04/11 09:19:14;;;;;;;6.17;5.57;;;;;;;;;;5098011;28;20434;-62
2021/04/11 09:22:02;;;;;;;4.60;4.20;;;;;;;;;;5097813;28;20418;-61
2021/04/11 09:24:32;;;;;;;3.60;3.30;;;;;;;;;;5092293;28;20466;-62
2021/04/11 09:27:16;;;;;;;6.13;3.83;;;;;;;;;;5096647;28;21062;-62
2021/04/11 09:29:49;;;;;;;3.53;3.23;;;;;;;;;;5097604;28;20435;-61
2021/04/11 09:32:21;;;;;;;3.23;2.97;;;;;;;;;;5097615;28;20461;-62
2021/04/11 09:35:06;;;;;;;3.00;2.70;;;;;;;;;;5097204;28;20455;-62
2021/04/11 09:37:52;;;;;;;3.00;2.60;;;;;;;;;;5096716;28;20433;-62
2021/04/11 09:40:21;;;;;;;3.20;2.33;;;;;;;;;;5096816;28;20952;-62
2021/04/11 09:42:54;;;;;;;2.10;1.73;;;;;;;;;;5096175;28;20441;-62
2021/04/11 09:45:24;;;;;;;2.47;2.27;;;;;;;;;;5096705;28;20522;-61
2021/04/11 09:47:57;;;;;;;3.33;2.00;;;;;;;;;;5112105;28;20474;-62
2021/04/11 09:50:29;;;;;;;2.03;1.83;;;;;;;;;;5101614;28;20427;-62
2021/04/11 09:53:08;;;;;;;2.10;1.90;;;;;;;;;;5096301;28;20441;-62
2021/04/11 09:55:37;;;;;;;2.10;1.90;;;;;;;;;;5096456;28;20627;-62
2021/04/11 09:58:18;;;;;;;2.23;2.03;;;;;;;;;;5095719;28;20450;-64
2021/04/11 10:00:51;;;;;;;2.80;2.50;;;;;;;;;;5096092;28;20434;-65
2021/04/11 10:03:25;;;;;;;2.50;2.30;;;;;;;;;;5096005;28;20414;-64
2021/04/11 10:05:58;;;;;;;3.50;3.20;;;;;;;;;;5095601;28;20813;-64
2021/04/11 10:08:43;;;;;;;4.03;3.10;;;;;;;;;;5095803;28;20958;-64
2021/04/11 10:11:16;;;;;;;3.10;2.90;;;;;;;;;;5095697;28;20445;-63
2021/04/11 10:13:54;;;;;;;5.17;3.87;;;;;;;;;;5095628;28;20929;-64
2021/04/11 10:16:25;;;;;;;4.93;4.50;;;;;;;;;;5096615;28;20977;-64
2021/04/11 10:19:19;;;;;;;5.50;5.00;;;;;;;;;;5097285;28;20427;-64
2021/04/11 10:21:53;;;;;;;5.93;5.33;;;;;;;;;;5061031;28;20450;-65
2021/04/11 10:24:33;;;;;;;6.28;5.68;;;;;;;;;;5097714;28;20899;-63
2021/04/11 10:27:03;;;;;;;6.63;6.03;;;;;;;;;;5097172;28;20698;-64
2021/04/11 10:29:30;;;;;;;6.10;5.50;;;;;;;;;;5096687;28;20258;-64
2021/04/11 10:32:01;;;;;;;8.05;7.25;;;;;;;;;;5095641;28;20461;-65
2021/04/11 10:34:32;;;;;;;6.97;6.28;;;;;;;;;;5096493;28;20228;-65
2021/04/11 10:37:05;;;;;;;7.35;6.65;;;;;;;;;;5095868;28;20342;-64
2021/04/11 10:39:36;;;;;;;7.77;6.97;;;;;;;;;;5095778;28;20582;-63
2021/04/11 10:42:15;;;;;;;8.10;7.30;;;;;;;;;;5099023;28;20422;-64
2021/04/11 10:44:56;;;;;;;8.48;7.68;;;;;;;;;;5097655;28;20901;-63
2021/04/11 10:47:35;;;;;;;7.72;7.03;;;;;;;;;;5095285;28;20220;-64
2021/04/11 10:50:05;;;;;;;9.10;8.20;;;;;;;;;;5095454;28;20636;-63
2021/04/11 10:52:45;;;;;;;9.30;8.30;;;;;;;;;;5096589;28;20185;-63
2021/04/11 10:55:31;;;;;;;9.07;8.18;;;;;;;;;;5097727;28;20484;-62
2021/04/11 10:58:04;;;;;;;9.13;7.78;;;;;;;;;;5095660;28;20181;-64
2021/04/11 11:00:34;;;;;;;8.57;7.72;;;;;;;;;;5094916;28;20229;-61
2021/04/11 11:03:17;;;;;;;8.48;7.55;;;;;;;;;;5099381;28;20265;-63
2021/04/11 11:05:54;;;;;;;8.93;7.30;;;;;;;;;;5106668;28;20224;-63
2021/04/11 11:08:37;;;;;;;8.48;7.35;;;;;;;;;;5109897;28;20465;-63
2021/04/11 11:11:25;;;;;;;10.18;9.07;;;;;;;;;;5110790;28;20185;-63
2021/04/11 11:14:01;;;;;;;9.55;8.05;;;;;;;;;;5095039;28;20729;-63
2021/04/11 11:16:32;;;;;;;9.65;8.68;;;;;;;;;;5093534;28;20216;-61
2021/04/11 11:19:12;;;;;;;11.40;9.40;;;;;;;;;;5094384;28;20188;-64
2021/04/11 11:22:00;;;;;;;11.40;9.50;;;;;;;;;;5094201;28;20192;-63
2021/04/11 11:24:41;;;;;;;11.55;10.27;;;;;;;;;;5090923;28;20204;-62
2021/04/11 11:27:26;;;;;;;14.35;11.57;;;;;;;;;;5094234;28;20761;-63
2021/04/11 11:30:05;;;;;;;12.02;10.25;;;;;;;;;;5094791;28;20207;-63
2021/04/11 11:32:34;;;;;;;12.32;10.70;;;;;;;;;;5094811;28;20210;-64
2021/04/11 11:35:05;;;;;;;14.18;11.15;;;;;;;;;;5095149;28;20250;-64
2021/04/11 11:37:44;;;;;;;13.05;10.27;;;;;;;;;;5094448;28;20187;-63
2021/04/11 11:40:17;;;;;;;10.93;8.77;;;;;;;;;;5094295;28;20192;-62
2021/04/11 11:42:51;;;;;;;10.75;9.65;;;;;;;;;;5094528;28;20203;-63
2021/04/11 11:45:23;;;;;;;12.07;9.80;;;;;;;;;;5095443;28;20224;-63
2021/04/11 11:47:56;;;;;;;11.73;10.43;;;;;;;;;;5104476;28;20215;-62
2021/04/11 11:50:25;;;;;;;11.20;9.02;;;;;;;;;;5100877;28;20185;-65
2021/04/11 11:52:54;;;;;;;10.68;9.57;;;;;;;;;;5097845;28;20200;-63
2021/04/11 11:55:22;;;;;;;11.60;9.15;;;;;;;;;;5096183;28;20228;-62
2021/04/11 11:57:52;;;;;;;11.68;9.88;;;;;;;;;;5094972;28;20199;-62
2021/04/11 12:00:20;;;;;;;11.05;9.77;;;;;;;;;;5094542;28;20204;-63
2021/04/11 12:02:50;;;;;;;11.70;9.90;;;;;;;;;;5093978;28;20211;-62
2021/04/11 12:05:20;;;;;;;13.32;9.82;;;;;;;;;;5094063;28;20220;-63
2021/04/11 12:07:56;;;;;;;13.00;9.52;;;;;;;;;;5093843;28;20232;-62
2021/04/11 12:10:28;;;;;;;12.30;10.13;;;;;;;;;;5094004;28;20196;-63
2021/04/11 12:12:57;;;;;;;13.00;10.65;;;;;;;;;;5093812;28;20200;-62
2021/04/11 12:15:27;;;;;;;12.90;10.88;;;;;;;;;;5093834;28;20220;-63
2021/04/11 12:17:57;;;;;;;12.38;9.38;;;;;;;;;;5093789;28;20200;-62
2021/04/11 12:20:28;;;;;;;12.13;8.48;;;;;;;;;;5093592;28;20188;-61
2021/04/11 12:23:00;;;;;;;10.38;9.30;;;;;;;;;;5093426;28;20184;-63
2021/04/11 12:25:29;;;;;;;9.25;7.60;;;;;;;;;;5093294;28;20231;-63
2021/04/11 12:27:55;;;;;;;8.60;6.90;;;;;;;;;;5094424;28;20216;-63
2021/04/11 12:30:28;;;;;;;7.45;6.30;;;;;;;;;;5097950;28;20206;-61
2021/04/11 12:32:57;;;;;;;8.95;7.68;;;;;;;;;;5097993;28;20199;-62
2021/04/11 12:35:27;;;;;;;7.05;6.32;;;;;;;;;;5097548;28;20216;-62
2021/04/11 12:37:59;;;;;;;7.60;6.35;;;;;;;;;;5097332;28;20200;-62
2021/04/11 12:40:29;;;;;;;6.28;5.68;;;;;;;;;;5097662;28;20233;-62
2021/04/11 12:43:01;;;;;;;6.82;5.70;;;;;;;;;;5098988;28;20184;-62
2021/04/11 12:45:29;;;;;;;6.15;5.55;;;;;;;;;;5097869;28;20220;-61
2021/04/11 12:48:02;;;;;;;5.05;4.55;;;;;;;;;;5097881;28;20659;-63
2021/04/11 12:50:32;;;;;;;6.15;5.55;;;;;;;;;;5098553;28;20195;-63
2021/04/11 12:53:04;;;;;;;6.10;5.60;;;;;;;;;;5097682;28;20605;-62
2021/04/11 12:55:33;;;;;;;5.85;5.35;;;;;;;;;;5097716;28;20220;-62
2021/04/11 12:58:05;;;;;;;5.95;5.40;;;;;;;;;;5097994;28;20192;-62
2021/04/11 13:00:34;;;;;;;5.60;5.05;;;;;;;;;;5097819;28;20185;-63
2021/04/11 13:03:05;;;;;;;6.65;5.80;;;;;;;;;;5098046;28;20200;-62
2021/04/11 13:05:34;;;;;;;6.57;5.50;;;;;;;;;;5097656;28;20220;-62
2021/04/11 13:08:07;;;;;;;6.53;5.28;;;;;;;;;;5097630;28;20212;-62
2021/04/11 13:10:36;;;;;;;5.97;5.45;;;;;;;;;;5097693;28;20196;-63
2021/04/11 13:13:07;;;;;;;4.80;4.30;;;;;;;;;;5097436;28;20251;-62
2021/04/11 13:15:36;;;;;;;5.85;4.60;;;;;;;;;;5097713;28;20264;-63
2021/04/11 13:18:07;;;;;;;5.50;4.88;;;;;;;;;;5097282;28;20570;-62
2021/04/11 13:20:37;;;;;;;5.28;4.78;;;;;;;;;;5096747;28;20200;-62
2021/04/11 13:23:07;;;;;;;4.15;3.72;;;;;;;;;;5097057;28;20203;-62
2021/04/11 13:25:41;;;;;;;4.15;3.83;;;;;;;;;;5097123;28;20699;-62
2021/04/11 13:28:12;;;;;;;3.72;3.17;;;;;;;;;;5102464;28;20206;-62
2021/04/11 13:30:41;;;;;;;4.45;4.05;;;;;;;;;;5103937;28;20184;-62
2021/04/11 13:33:13;;;;;;;3.92;3.60;;;;;;;;;;5099876;28;20664;-62
2021/04/11 13:35:41;;;;;;;4.30;3.90;;;;;;;;;;5100178;28;20227;-62
2021/04/11 13:38:15;;;;;;;3.85;3.55;;;;;;;;;;5100736;28;20203;-61
2021/04/11 13:40:43;;;;;;;3.83;3.47;;;;;;;;;;5099899;28;20185;-63
2021/04/11 13:43:24;;;;;;;3.45;3.15;;;;;;;;;;5100742;28;20200;-62
2021/04/11 13:46:05;;;;;;;3.45;3.20;;;;;;;;;;5097464;28;20639;-60
2021/04/11 13:48:38;;;;;;;3.90;3.60;;;;;;;;;;5101949;28;20204;-62
2021/04/11 13:51:11;;;;;;;7.20;4.00;;;;;;;;;;5112042;28;20283;-61
2021/04/11 13:53:47;;;;;;;3.50;3.20;;;;;;;;;;5096561;28;20192;-61
2021/04/11 13:56:17;;;;;;;3.50;3.17;;;;;;;;;;5095795;28;20703;-61
2021/04/11 13:58:49;;;;;;;3.80;3.45;;;;;;;;;;5095712;28;20637;-61
2021/04/11 14:01:17;;;;;;;3.53;3.28;;;;;;;;;;5096259;28;20608;-61
2021/04/11 14:03:49;;;;;;;3.50;3.20;;;;;;;;;;5095911;28;20196;-61
2021/04/11 14:06:19;;;;;;;3.65;3.35;;;;;;;;;;5095467;28;20283;-62
2021/04/11 14:08:49;;;;;;;4.32;3.92;;;;;;;;;;5095671;28;20216;-61
2021/04/11 14:11:18;;;;;;;3.83;3.38;;;;;;;;;;5095925;28;20211;-61
2021/04/11 14:13:48;;;;;;;3.90;3.60;;;;;;;;;;5095530;28;20204;-62
2021/04/11 14:16:18;;;;;;;3.40;3.05;;;;;;;;;;5095474;28;20227;-62
2021/04/11 14:18:47;;;;;;;4.35;3.60;;;;;;;;;;5095069;28;20197;-62
2021/04/11 14:21:19;;;;;;;3.40;3.10;;;;;;;;;;5095706;28;20200;-62
2021/04/11 14:23:56;;;;;;;3.55;3.25;;;;;;;;;;5095517;28;20188;-61
2021/04/11 14:26:27;;;;;;;3.40;3.10;;;;;;;;;;5095375;28;20224;-62
2021/04/11 14:28:56;;;;;;;3.47;3.20;;;;;;;;;;5096312;28;20204;-62
2021/04/11 14:31:26;;;;;;;3.60;3.17;;;;;;;;;;5095598;28;20200;-62
2021/04/11 14:33:58;;;;;;;4.10;3.10;;;;;;;;;;5096183;28;20204;-62
2021/04/11 14:36:27;;;;;;;4.40;3.50;;;;;;;;;;5094818;28;20224;-62
2021/04/11 14:39:01;;;;;;;3.45;3.08;;;;;;;;;;5095141;28;20664;-62
2021/04/11 14:41:36;;;;;;;4.35;3.20;;;;;;;;;;5095433;28;20196;-63
2021/04/11 14:44:03;;;;;;;4.07;3.60;;;;;;;;;;5095106;28;20217;-62
2021/04/11 14:46:34;;;;;;;4.93;3.47;;;;;;;;;;5095699;28;20316;-62
2021/04/11 14:49:06;;;;;;;3.75;3.45;;;;;;;;;;5095450;28;20192;-63
2021/04/11 14:51:47;;;;;;;2.45;2.25;;;;;;;;;;5094533;28;20249;-63
2021/04/11 14:54:22;;;;;;;3.70;3.20;;;;;;;;;;5094734;28;20279;-62
2021/04/11 14:56:50;;;;;;;3.40;3.10;;;;;;;;;;5095270;28;20188;-62
2021/04/11 14:59:23;;;;;;;4.25;3.60;;;;;;;;;;5095224;28;20224;-61
2021/04/11 15:01:52;;;;;;;5.63;3.88;;;;;;;;;;5094677;28;20292;-61
2021/04/11 15:04:24;;;;;;;5.55;4.88;;;;;;;;;;5094921;28;20283;-62
2021/04/11 15:06:58;;;;;;;3.70;3.30;;;;;;;;;;5095196;28;20207;-62
2021/04/11 15:09:34;;;;;;;3.65;3.35;;;;;;;;;;5095821;28;20632;-62
2021/04/11 15:12:04;;;;;;;6.07;3.88;;;;;;;;;;5096522;28;20199;-61
2021/04/11 15:14:34;;;;;;;3.42;3.15;;;;;;;;;;5096139;28;20288;-62
2021/04/11 15:17:08;;;;;;;4.00;3.60;;;;;;;;;;5095217;28;20180;-62
2021/04/11 15:19:41;;;;;;;3.30;3.00;;;;;;;;;;5095237;28;20202;-61
2021/04/11 15:22:20;;;;;;;5.00;4.20;;;;;;;;;;5095184;28;20219;-63
2021/04/11 15:24:49;;;;;;;4.40;3.90;;;;;;;;;;5095383;28;20246;-63
2021/04/11 15:27:19;;;;;;;6.50;4.03;;;;;;;;;;5094522;28;20212;-63
2021/04/11 15:29:49;;;;;;;5.88;4.50;;;;;;;;;;5094667;28;20249;-63